sensor_id;sensor_type;location;lat;lon;timestamp;P1;durP1;ratioP1;P2;durP2;ratioP2
74541;SDS011;63015;45.378;20.360;2023-05-07T00:00:41;6.53;;;4.40;;
74541;SDS011;63015;45.378;20.360;2023-05-07T00:02:42;8.23;;;4.15;;
74541;SDS011;63015;45.378;20.360;2023-05-07T00:04:44;6.32;;;3.60;;
74541;SDS011;63015;45.378;20.360;2023-05-07T00:06:45;8.20;;;3.72;;
74541;SDS011;63015;45.378;20.360;2023-05-07T00:08:46;7.05;;;3.42;;
74541;SDS011;63015;45.378;20.360;2023-05-07T00:10:46;6.90;;;3.50;;
74541;SDS011;63015;45.378;20.360;2023-05-07T00:12:47;6.68;;;3.47;;
74541;SDS011;63015;45.378;20.360;2023-05-07T00:14:47;5.82;;;3.20;;
74541;SDS011;63015;45.378;20.360;2023-05-07T00:16:48;8.55;;;4.18;;
74541;SDS011;63015;45.378;20.360;2023-05-07T00:18:49;5.78;;;3.20;;
74541;SDS011;63015;45.378;20.360;2023-05-07T00:20:49;6.88;;;3.55;;
74541;SDS011;63015;45.378;20.360;2023-05-07T00:22:50;6.32;;;3.50;;
74541;SDS011;63015;45.378;20.360;2023-05-07T00:24:50;9.32;;;3.72;;
74541;SDS011;63015;45.378;20.360;2023-05-07T00:26:51;8.00;;;3.75;;
74541;SDS011;63015;45.378;20.360;2023-05-07T00:28:52;7.53;;;3.80;;
74541;SDS011;63015;45.378;20.360;2023-05-07T00:30:53;5.78;;;3.25;;
74541;SDS011;63015;45.378;20.360;2023-05-07T00:32:53;7.20;;;3.58;;
74541;SDS011;63015;45.378;20.360;2023-05-07T00:34:54;12.68;;;4.30;;
74541;SDS011;63015;45.378;20.360;2023-05-07T00:36:55;7.63;;;3.97;;
74541;SDS011;63015;45.378;20.360;2023-05-07T00:38:56;6.00;;;3.42;;
74541;SDS011;63015;45.378;20.360;2023-05-07T00:40:59;7.57;;;3.80;;
74541;SDS011;63015;45.378;20.360;2023-05-07T00:42:59;9.23;;;3.40;;
74541;SDS011;63015;45.378;20.360;2023-05-07T00:45:00;5.90;;;3.30;;
74541;SDS011;63015;45.378;20.360;2023-05-07T00:47:01;7.78;;;3.63;;
74541;SDS011;63015;45.378;20.360;2023-05-07T00:49:03;6.97;;;4.05;;
74541;SDS011;63015;45.378;20.360;2023-05-07T00:51:05;7.88;;;4.22;;
74541;SDS011;63015;45.378;20.360;2023-05-07T00:53:06;9.07;;;3.35;;
74541;SDS011;63015;45.378;20.360;2023-05-07T00:55:06;6.60;;;3.78;;
74541;SDS011;63015;45.378;20.360;2023-05-07T00:57:08;8.93;;;3.58;;
74541;SDS011;63015;45.378;20.360;2023-05-07T00:59:11;5.85;;;2.67;;
74541;SDS011;63015;45.378;20.360;2023-05-07T01:01:11;7.20;;;3.70;;
74541;SDS011;63015;45.378;20.360;2023-05-07T01:03:12;7.40;;;4.30;;
74541;SDS011;63015;45.378;20.360;2023-05-07T01:05:14;7.72;;;4.10;;
74541;SDS011;63015;45.378;20.360;2023-05-07T01:07:17;6.57;;;3.70;;
74541;SDS011;63015;45.378;20.360;2023-05-07T01:09:17;7.40;;;3.78;;
74541;SDS011;63015;45.378;20.360;2023-05-07T01:11:20;7.72;;;4.53;;
74541;SDS011;63015;45.378;20.360;2023-05-07T01:13:21;6.53;;;4.47;;
74541;SDS011;63015;45.378;20.360;2023-05-07T01:15:22;6.28;;;3.40;;
74541;SDS011;63015;45.378;20.360;2023-05-07T01:17:23;7.05;;;3.97;;
74541;SDS011;63015;45.378;20.360;2023-05-07T01:19:25;6.63;;;4.03;;
74541;SDS011;63015;45.378;20.360;2023-05-07T01:21:27;7.88;;;3.80;;
74541;SDS011;63015;45.378;20.360;2023-05-07T01:23:34;7.50;;;3.95;;
74541;SDS011;63015;45.378;20.360;2023-05-07T01:25:35;6.22;;;4.47;;
74541;SDS011;63015;45.378;20.360;2023-05-07T01:27:36;7.13;;;4.50;;
74541;SDS011;63015;45.378;20.360;2023-05-07T01:29:37;7.85;;;3.60;;
74541;SDS011;63015;45.378;20.360;2023-05-07T01:31:38;7.25;;;3.78;;
74541;SDS011;63015;45.378;20.360;2023-05-07T01:33:42;7.40;;;3.63;;
74541;SDS011;63015;45.378;20.360;2023-05-07T01:35:46;6.53;;;4.38;;
74541;SDS011;63015;45.378;20.360;2023-05-07T01:37:50;6.13;;;3.72;;
74541;SDS011;63015;45.378;20.360;2023-05-07T01:39:51;6.60;;;4.72;;
74541;SDS011;63015;45.378;20.360;2023-05-07T01:41:55;7.30;;;3.70;;
74541;SDS011;63015;45.378;20.360;2023-05-07T01:43:58;10.38;;;4.18;;
74541;SDS011;63015;45.378;20.360;2023-05-07T01:45:59;9.15;;;4.18;;
74541;SDS011;63015;45.378;20.360;2023-05-07T01:48:03;7.03;;;3.85;;
74541;SDS011;63015;45.378;20.360;2023-05-07T01:50:07;8.13;;;4.10;;
74541;SDS011;63015;45.378;20.360;2023-05-07T01:52:10;9.25;;;4.55;;
74541;SDS011;63015;45.378;20.360;2023-05-07T01:54:12;7.10;;;4.53;;
74541;SDS011;63015;45.378;20.360;2023-05-07T01:56:13;7.40;;;3.92;;
74541;SDS011;63015;45.378;20.360;2023-05-07T01:58:16;8.40;;;4.72;;
74541;SDS011;63015;45.378;20.360;2023-05-07T02:00:16;6.97;;;3.88;;
74541;SDS011;63015;45.378;20.360;2023-05-07T02:02:18;9.23;;;4.60;;
74541;SDS011;63015;45.378;20.360;2023-05-07T02:04:20;10.02;;;3.95;;
74541;SDS011;63015;45.378;20.360;2023-05-07T02:06:20;6.93;;;3.85;;
74541;SDS011;63015;45.378;20.360;2023-05-07T02:08:21;6.93;;;3.83;;
74541;SDS011;63015;45.378;20.360;2023-05-07T02:10:22;7.13;;;4.80;;
74541;SDS011;63015;45.378;20.360;2023-05-07T02:12:23;7.53;;;3.67;;
74541;SDS011;63015;45.378;20.360;2023-05-07T02:14:23;8.27;;;4.13;;
74541;SDS011;63015;45.378;20.360;2023-05-07T02:16:25;7.43;;;3.95;;
74541;SDS011;63015;45.378;20.360;2023-05-07T02:18:26;6.75;;;4.05;;
74541;SDS011;63015;45.378;20.360;2023-05-07T02:20:27;8.68;;;4.78;;
74541;SDS011;63015;45.378;20.360;2023-05-07T02:22:27;6.97;;;4.25;;
74541;SDS011;63015;45.378;20.360;2023-05-07T02:24:28;9.88;;;4.30;;
74541;SDS011;63015;45.378;20.360;2023-05-07T02:26:29;7.00;;;4.45;;
74541;SDS011;63015;45.378;20.360;2023-05-07T02:28:29;9.95;;;4.20;;
74541;SDS011;63015;45.378;20.360;2023-05-07T02:30:36;6.70;;;4.38;;
74541;SDS011;63015;45.378;20.360;2023-05-07T02:32:37;7.60;;;4.13;;
74541;SDS011;63015;45.378;20.360;2023-05-07T02:34:37;8.02;;;3.90;;
74541;SDS011;63015;45.378;20.360;2023-05-07T02:36:38;6.93;;;3.88;;
74541;SDS011;63015;45.378;20.360;2023-05-07T02:38:44;9.63;;;4.35;;
74541;SDS011;63015;45.378;20.360;2023-05-07T02:40:44;9.43;;;4.35;;
74541;SDS011;63015;45.378;20.360;2023-05-07T02:42:45;7.60;;;4.00;;
74541;SDS011;63015;45.378;20.360;2023-05-07T02:44:46;6.72;;;3.80;;
74541;SDS011;63015;45.378;20.360;2023-05-07T02:46:47;8.13;;;4.07;;
74541;SDS011;63015;45.378;20.360;2023-05-07T02:48:47;9.48;;;5.00;;
74541;SDS011;63015;45.378;20.360;2023-05-07T02:50:48;8.00;;;4.78;;
74541;SDS011;63015;45.378;20.360;2023-05-07T02:52:49;9.40;;;3.92;;
74541;SDS011;63015;45.378;20.360;2023-05-07T02:54:50;7.13;;;4.15;;
74541;SDS011;63015;45.378;20.360;2023-05-07T02:56:50;8.43;;;4.57;;
74541;SDS011;63015;45.378;20.360;2023-05-07T02:58:51;8.60;;;4.38;;
74541;SDS011;63015;45.378;20.360;2023-05-07T03:00:53;9.27;;;4.20;;
74541;SDS011;63015;45.378;20.360;2023-05-07T03:03:05;7.20;;;3.85;;
74541;SDS011;63015;45.378;20.360;2023-05-07T03:05:06;7.20;;;4.30;;
74541;SDS011;63015;45.378;20.360;2023-05-07T03:07:07;7.43;;;4.40;;
74541;SDS011;63015;45.378;20.360;2023-05-07T03:09:07;7.40;;;4.45;;
74541;SDS011;63015;45.378;20.360;2023-05-07T03:11:09;11.57;;;4.50;;
74541;SDS011;63015;45.378;20.360;2023-05-07T03:13:10;7.72;;;5.10;;
74541;SDS011;63015;45.378;20.360;2023-05-07T03:15:11;7.13;;;4.47;;
74541;SDS011;63015;45.378;20.360;2023-05-07T03:17:12;7.07;;;4.90;;
74541;SDS011;63015;45.378;20.360;2023-05-07T03:19:13;8.65;;;5.50;;
74541;SDS011;63015;45.378;20.360;2023-05-07T03:21:14;7.18;;;4.45;;
74541;SDS011;63015;45.378;20.360;2023-05-07T03:23:15;9.32;;;5.10;;
74541;SDS011;63015;45.378;20.360;2023-05-07T03:25:15;8.13;;;5.30;;
74541;SDS011;63015;45.378;20.360;2023-05-07T03:27:16;8.77;;;5.22;;
74541;SDS011;63015;45.378;20.360;2023-05-07T03:29:17;8.18;;;4.32;;
74541;SDS011;63015;45.378;20.360;2023-05-07T03:31:18;8.32;;;5.00;;
74541;SDS011;63015;45.378;20.360;2023-05-07T03:33:18;12.48;;;4.65;;
74541;SDS011;63015;45.378;20.360;2023-05-07T03:35:20;8.75;;;4.53;;
74541;SDS011;63015;45.378;20.360;2023-05-07T03:37:21;9.70;;;5.13;;
74541;SDS011;63015;45.378;20.360;2023-05-07T03:39:22;7.40;;;4.20;;
74541;SDS011;63015;45.378;20.360;2023-05-07T03:41:23;7.50;;;4.60;;
74541;SDS011;63015;45.378;20.360;2023-05-07T03:43:24;8.70;;;4.82;;
74541;SDS011;63015;45.378;20.360;2023-05-07T03:45:32;8.20;;;4.78;;
74541;SDS011;63015;45.378;20.360;2023-05-07T03:47:42;12.75;;;6.13;;
74541;SDS011;63015;45.378;20.360;2023-05-07T03:49:43;8.88;;;5.05;;
74541;SDS011;63015;45.378;20.360;2023-05-07T03:51:46;9.13;;;4.97;;
74541;SDS011;63015;45.378;20.360;2023-05-07T03:53:46;9.02;;;5.32;;
74541;SDS011;63015;45.378;20.360;2023-05-07T03:55:47;8.63;;;4.85;;
74541;SDS011;63015;45.378;20.360;2023-05-07T03:57:48;8.93;;;4.97;;
74541;SDS011;63015;45.378;20.360;2023-05-07T03:59:49;11.60;;;5.90;;
74541;SDS011;63015;45.378;20.360;2023-05-07T04:01:49;10.88;;;5.00;;
74541;SDS011;63015;45.378;20.360;2023-05-07T04:03:52;8.05;;;5.63;;
74541;SDS011;63015;45.378;20.360;2023-05-07T04:05:53;10.40;;;5.53;;
74541;SDS011;63015;45.378;20.360;2023-05-07T04:07:55;7.65;;;4.68;;
74541;SDS011;63015;45.378;20.360;2023-05-07T04:10:01;7.60;;;5.65;;
74541;SDS011;63015;45.378;20.360;2023-05-07T04:12:04;9.18;;;4.90;;
74541;SDS011;63015;45.378;20.360;2023-05-07T04:14:06;7.93;;;4.82;;
74541;SDS011;63015;45.378;20.360;2023-05-07T04:16:08;9.27;;;4.78;;
74541;SDS011;63015;45.378;20.360;2023-05-07T04:18:10;7.60;;;5.25;;
74541;SDS011;63015;45.378;20.360;2023-05-07T04:20:14;9.63;;;5.80;;
74541;SDS011;63015;45.378;20.360;2023-05-07T04:22:15;9.70;;;5.38;;
74541;SDS011;63015;45.378;20.360;2023-05-07T04:24:16;8.10;;;4.40;;
74541;SDS011;63015;45.378;20.360;2023-05-07T04:26:17;7.65;;;5.35;;
74541;SDS011;63015;45.378;20.360;2023-05-07T04:28:19;9.05;;;5.60;;
74541;SDS011;63015;45.378;20.360;2023-05-07T04:30:20;9.73;;;4.50;;
74541;SDS011;63015;45.378;20.360;2023-05-07T04:32:21;7.32;;;4.57;;
74541;SDS011;63015;45.378;20.360;2023-05-07T04:34:23;8.65;;;4.65;;
74541;SDS011;63015;45.378;20.360;2023-05-07T04:36:23;11.80;;;5.43;;
74541;SDS011;63015;45.378;20.360;2023-05-07T04:38:32;8.35;;;5.30;;
74541;SDS011;63015;45.378;20.360;2023-05-07T04:40:35;9.00;;;4.60;;
74541;SDS011;63015;45.378;20.360;2023-05-07T04:42:37;6.85;;;4.40;;
74541;SDS011;63015;45.378;20.360;2023-05-07T04:44:38;9.68;;;4.28;;
74541;SDS011;63015;45.378;20.360;2023-05-07T04:46:38;8.05;;;4.32;;
74541;SDS011;63015;45.378;20.360;2023-05-07T04:48:39;9.07;;;4.75;;
74541;SDS011;63015;45.378;20.360;2023-05-07T04:50:41;6.35;;;4.18;;
74541;SDS011;63015;45.378;20.360;2023-05-07T04:52:42;7.82;;;4.07;;
74541;SDS011;63015;45.378;20.360;2023-05-07T04:54:43;7.88;;;3.97;;
74541;SDS011;63015;45.378;20.360;2023-05-07T04:56:43;7.28;;;3.92;;
74541;SDS011;63015;45.378;20.360;2023-05-07T04:58:44;6.80;;;4.15;;
74541;SDS011;63015;45.378;20.360;2023-05-07T05:00:46;8.52;;;4.13;;
74541;SDS011;63015;45.378;20.360;2023-05-07T05:02:46;7.38;;;4.07;;
74541;SDS011;63015;45.378;20.360;2023-05-07T05:04:51;7.28;;;4.30;;
74541;SDS011;63015;45.378;20.360;2023-05-07T05:06:52;8.45;;;4.97;;
74541;SDS011;63015;45.378;20.360;2023-05-07T05:08:53;6.88;;;4.25;;
74541;SDS011;63015;45.378;20.360;2023-05-07T05:10:54;9.02;;;4.32;;
74541;SDS011;63015;45.378;20.360;2023-05-07T05:12:55;7.72;;;4.30;;
74541;SDS011;63015;45.378;20.360;2023-05-07T05:14:58;9.10;;;4.38;;
74541;SDS011;63015;45.378;20.360;2023-05-07T05:16:59;7.28;;;4.97;;
74541;SDS011;63015;45.378;20.360;2023-05-07T05:19:01;7.63;;;3.60;;
74541;SDS011;63015;45.378;20.360;2023-05-07T05:21:03;8.20;;;3.63;;
74541;SDS011;63015;45.378;20.360;2023-05-07T05:23:05;7.53;;;3.85;;
74541;SDS011;63015;45.378;20.360;2023-05-07T05:25:07;8.25;;;4.10;;
74541;SDS011;63015;45.378;20.360;2023-05-07T05:27:07;9.93;;;5.13;;
74541;SDS011;63015;45.378;20.360;2023-05-07T05:29:08;7.25;;;4.72;;
74541;SDS011;63015;45.378;20.360;2023-05-07T05:31:13;8.13;;;4.85;;
74541;SDS011;63015;45.378;20.360;2023-05-07T05:33:14;9.38;;;4.97;;
74541;SDS011;63015;45.378;20.360;2023-05-07T05:35:15;9.95;;;4.53;;
74541;SDS011;63015;45.378;20.360;2023-05-07T05:37:18;6.88;;;4.95;;
74541;SDS011;63015;45.378;20.360;2023-05-07T05:39:19;8.63;;;4.32;;
74541;SDS011;63015;45.378;20.360;2023-05-07T05:41:20;8.73;;;4.70;;
74541;SDS011;63015;45.378;20.360;2023-05-07T05:43:21;10.10;;;4.85;;
74541;SDS011;63015;45.378;20.360;2023-05-07T05:45:21;6.57;;;4.18;;
74541;SDS011;63015;45.378;20.360;2023-05-07T05:47:22;8.38;;;3.88;;
74541;SDS011;63015;45.378;20.360;2023-05-07T05:49:24;6.43;;;3.88;;
74541;SDS011;63015;45.378;20.360;2023-05-07T05:51:24;12.48;;;4.22;;
74541;SDS011;63015;45.378;20.360;2023-05-07T05:53:27;8.75;;;4.30;;
74541;SDS011;63015;45.378;20.360;2023-05-07T05:55:28;6.90;;;4.22;;
74541;SDS011;63015;45.378;20.360;2023-05-07T05:57:29;8.30;;;3.67;;
74541;SDS011;63015;45.378;20.360;2023-05-07T05:59:30;7.18;;;3.90;;
74541;SDS011;63015;45.378;20.360;2023-05-07T06:01:32;7.63;;;4.00;;
74541;SDS011;63015;45.378;20.360;2023-05-07T06:03:35;7.68;;;4.07;;
74541;SDS011;63015;45.378;20.360;2023-05-07T06:05:39;7.75;;;3.88;;
74541;SDS011;63015;45.378;20.360;2023-05-07T06:07:40;7.22;;;3.63;;
74541;SDS011;63015;45.378;20.360;2023-05-07T06:09:41;5.68;;;3.50;;
74541;SDS011;63015;45.378;20.360;2023-05-07T06:11:42;6.43;;;4.50;;
74541;SDS011;63015;45.378;20.360;2023-05-07T06:13:44;6.70;;;3.95;;
74541;SDS011;63015;45.378;20.360;2023-05-07T06:15:45;8.88;;;3.60;;
74541;SDS011;63015;45.378;20.360;2023-05-07T06:17:47;8.15;;;3.55;;
74541;SDS011;63015;45.378;20.360;2023-05-07T06:19:49;7.20;;;3.70;;
74541;SDS011;63015;45.378;20.360;2023-05-07T06:23:52;9.32;;;4.05;;
74541;SDS011;63015;45.378;20.360;2023-05-07T06:25:55;7.22;;;3.60;;
74541;SDS011;63015;45.378;20.360;2023-05-07T06:28:00;7.25;;;2.88;;
74541;SDS011;63015;45.378;20.360;2023-05-07T06:30:01;6.50;;;3.20;;
74541;SDS011;63015;45.378;20.360;2023-05-07T06:32:12;8.68;;;3.80;;
74541;SDS011;63015;45.378;20.360;2023-05-07T06:34:15;9.52;;;5.25;;
74541;SDS011;63015;45.378;20.360;2023-05-07T06:36:16;15.32;;;7.43;;
74541;SDS011;63015;45.378;20.360;2023-05-07T06:38:18;9.55;;;6.32;;
74541;SDS011;63015;45.378;20.360;2023-05-07T06:40:20;18.70;;;11.35;;
74541;SDS011;63015;45.378;20.360;2023-05-07T06:42:22;16.52;;;11.95;;
74541;SDS011;63015;45.378;20.360;2023-05-07T06:44:23;8.65;;;6.00;;
74541;SDS011;63015;45.378;20.360;2023-05-07T06:46:40;8.10;;;5.30;;
74541;SDS011;63015;45.378;20.360;2023-05-07T06:48:41;7.75;;;4.20;;
74541;SDS011;63015;45.378;20.360;2023-05-07T06:50:42;8.15;;;4.25;;
74541;SDS011;63015;45.378;20.360;2023-05-07T06:52:43;7.78;;;3.95;;
74541;SDS011;63015;45.378;20.360;2023-05-07T06:54:44;5.72;;;3.30;;
74541;SDS011;63015;45.378;20.360;2023-05-07T06:56:47;8.10;;;3.22;;
74541;SDS011;63015;45.378;20.360;2023-05-07T06:58:48;6.65;;;3.35;;
74541;SDS011;63015;45.378;20.360;2023-05-07T07:00:48;7.00;;;2.80;;
74541;SDS011;63015;45.378;20.360;2023-05-07T07:02:50;5.88;;;2.92;;
74541;SDS011;63015;45.378;20.360;2023-05-07T07:04:54;6.82;;;3.20;;
74541;SDS011;63015;45.378;20.360;2023-05-07T07:06:56;6.47;;;3.20;;
74541;SDS011;63015;45.378;20.360;2023-05-07T07:08:57;8.27;;;2.90;;
74541;SDS011;63015;45.378;20.360;2023-05-07T07:10:58;5.60;;;3.47;;
74541;SDS011;63015;45.378;20.360;2023-05-07T07:12:59;4.93;;;3.03;;
74541;SDS011;63015;45.378;20.360;2023-05-07T07:15:00;5.63;;;3.10;;
74541;SDS011;63015;45.378;20.360;2023-05-07T07:17:01;5.65;;;3.00;;
74541;SDS011;63015;45.378;20.360;2023-05-07T07:19:02;5.32;;;3.00;;
74541;SDS011;63015;45.378;20.360;2023-05-07T07:21:03;7.90;;;2.80;;
74541;SDS011;63015;45.378;20.360;2023-05-07T07:23:06;7.40;;;2.90;;
74541;SDS011;63015;45.378;20.360;2023-05-07T07:25:07;6.22;;;2.90;;
74541;SDS011;63015;45.378;20.360;2023-05-07T07:27:08;5.78;;;2.60;;
74541;SDS011;63015;45.378;20.360;2023-05-07T07:29:09;4.40;;;2.28;;
74541;SDS011;63015;45.378;20.360;2023-05-07T07:31:10;6.55;;;3.50;;
74541;SDS011;63015;45.378;20.360;2023-05-07T07:33:11;8.13;;;3.35;;
74541;SDS011;63015;45.378;20.360;2023-05-07T07:35:12;5.10;;;2.88;;
74541;SDS011;63015;45.378;20.360;2023-05-07T07:37:13;4.95;;;2.85;;
74541;SDS011;63015;45.378;20.360;2023-05-07T07:39:14;9.55;;;3.42;;
74541;SDS011;63015;45.378;20.360;2023-05-07T07:41:15;7.95;;;2.75;;
74541;SDS011;63015;45.378;20.360;2023-05-07T07:43:16;5.35;;;2.83;;
74541;SDS011;63015;45.378;20.360;2023-05-07T07:45:17;6.07;;;2.50;;
74541;SDS011;63015;45.378;20.360;2023-05-07T07:47:21;5.32;;;3.00;;
74541;SDS011;63015;45.378;20.360;2023-05-07T07:49:23;6.20;;;3.20;;
74541;SDS011;63015;45.378;20.360;2023-05-07T07:51:23;7.07;;;3.60;;
74541;SDS011;63015;45.378;20.360;2023-05-07T07:53:24;5.30;;;2.58;;
74541;SDS011;63015;45.378;20.360;2023-05-07T07:55:25;5.65;;;2.63;;
74541;SDS011;63015;45.378;20.360;2023-05-07T07:57:28;4.38;;;2.30;;
74541;SDS011;63015;45.378;20.360;2023-05-07T07:59:29;4.80;;;2.75;;
74541;SDS011;63015;45.378;20.360;2023-05-07T08:01:30;7.20;;;2.88;;
74541;SDS011;63015;45.378;20.360;2023-05-07T08:03:32;7.05;;;3.10;;
74541;SDS011;63015;45.378;20.360;2023-05-07T08:05:33;7.30;;;2.65;;
74541;SDS011;63015;45.378;20.360;2023-05-07T08:07:34;5.70;;;2.88;;
74541;SDS011;63015;45.378;20.360;2023-05-07T08:09:36;5.47;;;2.63;;
74541;SDS011;63015;45.378;20.360;2023-05-07T08:13:39;4.10;;;2.38;;
74541;SDS011;63015;45.378;20.360;2023-05-07T08:15:40;5.90;;;2.35;;
74541;SDS011;63015;45.378;20.360;2023-05-07T08:17:41;5.78;;;2.45;;
74541;SDS011;63015;45.378;20.360;2023-05-07T08:19:42;9.77;;;2.70;;
74541;SDS011;63015;45.378;20.360;2023-05-07T08:21:46;5.57;;;2.80;;
74541;SDS011;63015;45.378;20.360;2023-05-07T08:23:48;7.40;;;2.55;;
74541;SDS011;63015;45.378;20.360;2023-05-07T08:25:49;5.60;;;2.35;;
74541;SDS011;63015;45.378;20.360;2023-05-07T08:27:50;9.15;;;2.65;;
74541;SDS011;63015;45.378;20.360;2023-05-07T08:29:51;4.00;;;2.35;;
74541;SDS011;63015;45.378;20.360;2023-05-07T08:31:55;8.02;;;2.60;;
74541;SDS011;63015;45.378;20.360;2023-05-07T08:33:56;4.70;;;2.40;;
74541;SDS011;63015;45.378;20.360;2023-05-07T08:35:58;4.13;;;2.38;;
74541;SDS011;63015;45.378;20.360;2023-05-07T08:37:59;7.35;;;2.50;;
74541;SDS011;63015;45.378;20.360;2023-05-07T08:39:59;5.93;;;2.80;;
74541;SDS011;63015;45.378;20.360;2023-05-07T08:42:04;4.68;;;2.58;;
74541;SDS011;63015;45.378;20.360;2023-05-07T08:44:11;7.00;;;3.70;;
74541;SDS011;63015;45.378;20.360;2023-05-07T08:46:15;4.85;;;2.50;;
74541;SDS011;63015;45.378;20.360;2023-05-07T08:48:18;3.85;;;1.83;;
74541;SDS011;63015;45.378;20.360;2023-05-07T08:50:30;5.50;;;3.30;;
74541;SDS011;63015;45.378;20.360;2023-05-07T08:52:32;5.78;;;2.38;;
74541;SDS011;63015;45.378;20.360;2023-05-07T08:54:33;4.55;;;2.38;;
74541;SDS011;63015;45.378;20.360;2023-05-07T08:56:35;14.23;;;3.55;;
74541;SDS011;63015;45.378;20.360;2023-05-07T08:58:36;4.78;;;2.42;;
74541;SDS011;63015;45.378;20.360;2023-05-07T09:00:37;6.38;;;2.70;;
74541;SDS011;63015;45.378;20.360;2023-05-07T09:02:40;6.90;;;2.55;;
74541;SDS011;63015;45.378;20.360;2023-05-07T09:04:42;4.97;;;2.42;;
74541;SDS011;63015;45.378;20.360;2023-05-07T09:06:43;4.88;;;2.38;;
74541;SDS011;63015;45.378;20.360;2023-05-07T09:08:49;5.20;;;2.35;;
74541;SDS011;63015;45.378;20.360;2023-05-07T09:10:51;10.50;;;2.50;;
74541;SDS011;63015;45.378;20.360;2023-05-07T09:12:52;5.53;;;2.40;;
74541;SDS011;63015;45.378;20.360;2023-05-07T09:14:53;6.57;;;2.60;;
74541;SDS011;63015;45.378;20.360;2023-05-07T09:16:54;6.15;;;2.60;;
74541;SDS011;63015;45.378;20.360;2023-05-07T09:18:56;6.57;;;2.15;;
74541;SDS011;63015;45.378;20.360;2023-05-07T09:20:58;10.55;;;2.30;;
74541;SDS011;63015;45.378;20.360;2023-05-07T09:22:58;9.35;;;2.67;;
74541;SDS011;63015;45.378;20.360;2023-05-07T09:25:00;5.95;;;2.15;;
74541;SDS011;63015;45.378;20.360;2023-05-07T09:27:02;5.07;;;2.50;;
74541;SDS011;63015;45.378;20.360;2023-05-07T09:29:04;5.38;;;2.90;;
74541;SDS011;63015;45.378;20.360;2023-05-07T09:31:05;5.90;;;2.35;;
74541;SDS011;63015;45.378;20.360;2023-05-07T09:33:05;6.00;;;2.30;;
74541;SDS011;63015;45.378;20.360;2023-05-07T09:35:14;7.65;;;2.33;;
74541;SDS011;63015;45.378;20.360;2023-05-07T09:37:20;4.60;;;2.05;;
74541;SDS011;63015;45.378;20.360;2023-05-07T09:39:21;4.85;;;2.50;;
74541;SDS011;63015;45.378;20.360;2023-05-07T09:41:23;4.38;;;2.47;;
74541;SDS011;63015;45.378;20.360;2023-05-07T09:43:39;5.53;;;2.42;;
74541;SDS011;63015;45.378;20.360;2023-05-07T09:45:42;4.13;;;2.47;;
74541;SDS011;63015;45.378;20.360;2023-05-07T09:47:43;5.72;;;2.70;;
74541;SDS011;63015;45.378;20.360;2023-05-07T09:49:46;7.38;;;2.40;;
74541;SDS011;63015;45.378;20.360;2023-05-07T09:51:52;5.88;;;2.45;;
74541;SDS011;63015;45.378;20.360;2023-05-07T09:53:56;5.80;;;2.28;;
74541;SDS011;63015;45.378;20.360;2023-05-07T09:55:58;7.57;;;3.45;;
74541;SDS011;63015;45.378;20.360;2023-05-07T09:57:59;6.63;;;3.40;;
74541;SDS011;63015;45.378;20.360;2023-05-07T10:00:03;5.93;;;3.72;;
74541;SDS011;63015;45.378;20.360;2023-05-07T10:02:09;5.10;;;2.80;;
74541;SDS011;63015;45.378;20.360;2023-05-07T10:04:19;5.00;;;2.40;;
74541;SDS011;63015;45.378;20.360;2023-05-07T10:06:21;4.38;;;2.30;;
74541;SDS011;63015;45.378;20.360;2023-05-07T10:08:22;5.75;;;2.80;;
74541;SDS011;63015;45.378;20.360;2023-05-07T10:10:27;7.72;;;2.80;;
74541;SDS011;63015;45.378;20.360;2023-05-07T10:14:37;6.32;;;2.45;;
74541;SDS011;63015;45.378;20.360;2023-05-07T10:16:37;4.53;;;3.17;;
74541;SDS011;63015;45.378;20.360;2023-05-07T10:18:43;44.25;;;4.95;;
74541;SDS011;63015;45.378;20.360;2023-05-07T10:20:49;5.88;;;3.42;;
74541;SDS011;63015;45.378;20.360;2023-05-07T10:22:53;5.80;;;2.42;;
74541;SDS011;63015;45.378;20.360;2023-05-07T10:25:01;8.27;;;2.58;;
74541;SDS011;63015;45.378;20.360;2023-05-07T10:27:05;4.32;;;2.17;;
74541;SDS011;63015;45.378;20.360;2023-05-07T10:29:18;5.38;;;2.90;;
74541;SDS011;63015;45.378;20.360;2023-05-07T10:31:48;5.55;;;2.95;;
74541;SDS011;63015;45.378;20.360;2023-05-07T10:33:56;7.95;;;2.30;;
74541;SDS011;63015;45.378;20.360;2023-05-07T10:35:59;4.60;;;2.80;;
74541;SDS011;63015;45.378;20.360;2023-05-07T10:38:03;4.80;;;2.75;;
74541;SDS011;63015;45.378;20.360;2023-05-07T10:40:08;5.40;;;2.45;;
74541;SDS011;63015;45.378;20.360;2023-05-07T10:42:11;5.15;;;3.15;;
74541;SDS011;63015;45.378;20.360;2023-05-07T10:44:26;5.43;;;2.45;;
74541;SDS011;63015;45.378;20.360;2023-05-07T10:46:28;4.95;;;2.60;;
74541;SDS011;63015;45.378;20.360;2023-05-07T10:51:19;8.23;;;3.60;;
74541;SDS011;63015;45.378;20.360;2023-05-07T10:53:30;4.80;;;2.13;;
74541;SDS011;63015;45.378;20.360;2023-05-07T10:55:52;8.15;;;2.70;;
74541;SDS011;63015;45.378;20.360;2023-05-07T10:58:26;4.38;;;2.92;;
74541;SDS011;63015;45.378;20.360;2023-05-07T11:05:19;4.75;;;2.80;;
74541;SDS011;63015;45.378;20.360;2023-05-07T11:07:24;32.75;;;4.35;;
74541;SDS011;63015;45.378;20.360;2023-05-07T11:11:55;4.55;;;2.47;;
74541;SDS011;63015;45.378;20.360;2023-05-07T11:16:43;7.30;;;2.40;;
74541;SDS011;63015;45.378;20.360;2023-05-07T11:18:56;6.07;;;3.25;;
74541;SDS011;63015;45.378;20.360;2023-05-07T11:21:03;4.75;;;2.78;;
74541;SDS011;63015;45.378;20.360;2023-05-07T11:25:48;4.97;;;2.10;;
74541;SDS011;63015;45.378;20.360;2023-05-07T11:27:54;3.92;;;2.20;;
74541;SDS011;63015;45.378;20.360;2023-05-07T11:29:56;7.05;;;2.10;;
74541;SDS011;63015;45.378;20.360;2023-05-07T11:31:57;6.97;;;3.08;;
74541;SDS011;63015;45.378;20.360;2023-05-07T11:34:02;5.47;;;2.60;;
74541;SDS011;63015;45.378;20.360;2023-05-07T11:36:04;5.28;;;2.17;;
74541;SDS011;63015;45.378;20.360;2023-05-07T11:38:10;7.05;;;2.10;;
74541;SDS011;63015;45.378;20.360;2023-05-07T11:40:13;5.40;;;2.85;;
74541;SDS011;63015;45.378;20.360;2023-05-07T11:42:30;5.20;;;2.10;;
74541;SDS011;63015;45.378;20.360;2023-05-07T11:44:41;4.80;;;2.60;;
74541;SDS011;63015;45.378;20.360;2023-05-07T11:46:43;5.28;;;2.75;;
74541;SDS011;63015;45.378;20.360;2023-05-07T11:48:45;4.95;;;2.90;;
74541;SDS011;63015;45.378;20.360;2023-05-07T11:53:08;6.03;;;2.88;;
74541;SDS011;63015;45.378;20.360;2023-05-07T11:55:09;6.57;;;2.90;;
74541;SDS011;63015;45.378;20.360;2023-05-07T11:57:14;6.10;;;2.90;;
74541;SDS011;63015;45.378;20.360;2023-05-07T11:59:18;10.68;;;3.15;;
74541;SDS011;63015;45.378;20.360;2023-05-07T12:01:19;14.30;;;3.10;;
74541;SDS011;63015;45.378;20.360;2023-05-07T12:03:20;6.30;;;2.40;;
74541;SDS011;63015;45.378;20.360;2023-05-07T12:05:21;5.47;;;2.53;;
74541;SDS011;63015;45.378;20.360;2023-05-07T12:07:21;5.38;;;2.80;;
74541;SDS011;63015;45.378;20.360;2023-05-07T12:09:25;6.75;;;2.92;;
74541;SDS011;63015;45.378;20.360;2023-05-07T12:11:26;5.03;;;1.92;;
74541;SDS011;63015;45.378;20.360;2023-05-07T12:13:26;3.75;;;2.20;;
74541;SDS011;63015;45.378;20.360;2023-05-07T12:15:27;5.95;;;1.95;;
74541;SDS011;63015;45.378;20.360;2023-05-07T12:17:28;4.70;;;2.45;;
74541;SDS011;63015;45.378;20.360;2023-05-07T12:19:29;6.00;;;2.63;;
74541;SDS011;63015;45.378;20.360;2023-05-07T12:21:30;5.50;;;2.40;;
74541;SDS011;63015;45.378;20.360;2023-05-07T12:23:31;3.95;;;2.55;;
74541;SDS011;63015;45.378;20.360;2023-05-07T12:25:34;4.40;;;2.03;;
74541;SDS011;63015;45.378;20.360;2023-05-07T12:27:36;4.13;;;2.08;;
74541;SDS011;63015;45.378;20.360;2023-05-07T12:29:39;4.30;;;2.35;;